Time;durP1;ratioP1;P1;durP2;ratioP2;P2;SDS_P1;SDS_P2;PMS_P1;PMS_P2;Temp;Humidity;BMP_temperature;BMP_pressure;BME280_temperature;BME280_humidity;BME280_pressure;Samples;Min_cycle;Max_cycle;Signal;HPM_P1;HPM_P2
2023/01/04 05:31:43;;;;;;;;;1.00;1.00;;;;;-147.14;100.00;58812.66;6218264;22;46347;-57
2023/01/04 05:34:09;;;;;;;;;1.00;1.00;;;;;-147.14;100.00;58812.66;6246651;22;65487;-57
2023/01/04 05:36:34;;;;;;;;;1.33;1.33;;;;;-147.14;100.00;58812.66;6246643;22;63735;-57
2023/01/04 05:38:59;;;;;;;;;1.00;1.00;;;;;-147.14;100.00;58812.66;6246514;22;61914;-57
2023/01/04 05:44:08;;;;;;;;;1.00;1.00;;;;;-147.14;100.00;58812.66;6247585;22;45409;-58
2023/01/04 05:46:34;;;;;;;;;0.00;0.00;;;;;-147.14;100.00;58812.66;6246828;22;64603;-58
2023/01/04 05:48:59;;;;;;;;;0.00;0.00;;;;;-147.14;100.00;58812.66;6247617;22;45229;-58
2023/01/04 05:51:25;;;;;;;;;1.67;1.00;;;;;-147.14;100.00;58812.66;6247668;22;45341;-58
2023/01/04 05:53:51;;;;;;;;;0.00;0.00;;;;;-147.14;100.00;58812.66;6246717;22;46098;-58
2023/01/04 05:56:16;;;;;;;;;0.00;0.00;;;;;-147.14;100.00;58812.66;6246328;22;65179;-58
2023/01/04 05:58:41;;;;;;;;;0.67;0.67;;;;;-147.14;100.00;58812.66;6246659;22;60007;-59
2023/01/04 06:01:07;;;;;;;;;2.00;1.00;;;;;-147.14;100.00;58812.66;6246938;22;57487;-58
2023/01/04 06:03:32;;;;;;;;;0.00;0.00;;;;;-147.14;100.00;58812.66;6246028;22;56892;-58
2023/01/04 06:05:57;;;;;;;;;1.00;1.00;;;;;-147.14;100.00;58812.66;6246729;22;45659;-56
2023/01/04 06:08:23;;;;;;;;;2.00;0.00;;;;;-147.14;100.00;58812.66;6247409;22;45412;-57
2023/01/04 06:10:53;;;;;;;;;1.00;1.00;;;;;-147.14;100.00;58812.66;6246031;22;59796;-59
2023/01/04 06:13:19;;;;;;;;;0.00;0.00;;;;;-147.14;100.00;58812.66;6247213;22;46268;-59
2023/01/04 06:15:44;;;;;;;;;0.33;0.33;;;;;-147.14;100.00;58812.66;6247893;22;45287;-57
2023/01/04 06:18:10;;;;;;;;;0.00;0.00;;;;;-147.14;100.00;58812.66;6247948;22;59956;-59
2023/01/04 06:20:35;;;;;;;;;0.00;0.00;;;;;-147.14;100.00;58812.66;6247885;22;60280;-59
2023/01/04 06:23:00;;;;;;;;;0.00;0.00;;;;;-147.14;100.00;58812.66;6244731;22;63635;-59
2023/01/04 06:25:26;;;;;;;;;0.33;0.33;;;;;-147.14;100.00;58812.66;6245742;22;58073;-58
2023/01/04 06:27:51;;;;;;;;;0.00;0.00;;;;;-147.14;100.00;58812.66;6245240;22;57720;-59
2023/01/04 06:30:16;;;;;;;;;0.00;0.00;;;;;-147.14;100.00;58812.66;6245222;22;60310;-59
2023/01/04 06:32:42;;;;;;;;;0.67;0.67;;;;;-147.14;100.00;58812.66;6217329;22;56189;-58
2023/01/04 06:35:07;;;;;;;;;0.00;0.00;;;;;-147.14;100.00;58812.66;6245475;22;45307;-59
2023/01/04 06:37:34;;;;;;;;;1.67;0.67;;;;;-147.14;100.00;58812.66;6245194;22;45273;-58
2023/01/04 06:39:59;;;;;;;;;2.00;0.00;;;;;-147.14;100.00;58812.66;6245656;22;45380;-57
2023/01/04 06:42:43;;;;;;;;;1.00;1.00;;;;;-147.14;100.00;58812.66;6244601;22;65678;-57
2023/01/04 06:45:09;;;;;;;;;1.33;0.00;;;;;-147.14;100.00;58812.66;6245522;22;45606;-58
2023/01/04 06:47:34;;;;;;;;;1.00;1.00;;;;;-147.14;100.00;58812.66;6245685;22;45292;-58
2023/01/04 06:49:59;;;;;;;;;0.00;0.00;;;;;-147.14;100.00;58812.66;6245379;22;45355;-58
2023/01/04 06:52:25;;;;;;;;;0.00;0.00;;;;;-147.14;100.00;58812.66;6246537;22;46106;-57
2023/01/04 06:54:50;;;;;;;;;1.00;1.00;;;;;-147.14;100.00;58812.66;6246374;22;45229;-58
2023/01/04 06:57:16;;;;;;;;;1.00;1.00;;;;;-147.14;100.00;58812.66;6246190;22;45277;-58
2023/01/04 06:59:41;;;;;;;;;2.00;0.00;;;;;-147.14;100.00;58812.66;6244940;22;61091;-58
2023/01/04 07:02:06;;;;;;;;;0.00;0.00;;;;;-147.14;100.00;58812.66;6245601;22;46036;-58
2023/01/04 07:04:32;;;;;;;;;0.00;0.00;;;;;-147.14;100.00;58812.66;6217920;22;64217;-58
2023/01/04 07:06:57;;;;;;;;;2.00;0.00;;;;;-147.14;100.00;58812.66;6244711;22;60501;-58
2023/01/04 07:09:22;;;;;;;;;0.00;0.00;;;;;-147.14;100.00;58812.66;6245815;22;45312;-58
2023/01/04 07:11:48;;;;;;;;;0.00;0.00;;;;;-147.14;100.00;58812.66;6244920;22;67127;-57
2023/01/04 07:14:13;;;;;;;;;0.00;0.00;;;;;-147.14;100.00;58812.66;6217433;22;66558;-56
2023/01/04 07:16:38;;;;;;;;;1.00;1.00;;;;;-147.14;100.00;58812.66;6246261;22;45289;-54
2023/01/04 07:19:04;;;;;;;;;1.00;1.00;;;;;-147.14;100.00;58812.66;6245807;22;45316;-56
2023/01/04 07:21:29;;;;;;;;;0.00;0.00;;;;;-147.14;100.00;58812.66;6244691;22;66280;-57
2023/01/04 07:23:54;;;;;;;;;0.33;0.33;;;;;-147.14;100.00;58812.66;6245150;22;50816;-56
2023/01/04 07:26:20;;;;;;;;;1.00;1.00;;;;;-147.14;100.00;58812.66;6217980;22;61474;-55
2023/01/04 07:31:29;;;;;;;;;3.00;0.00;;;;;-147.14;100.00;58812.66;6246225;22;45361;-53
2023/01/04 07:33:54;;;;;;;;;0.00;0.00;;;;;-147.14;100.00;58812.66;6244695;22;62404;-54
2023/01/04 07:36:19;;;;;;;;;0.00;0.00;;;;;-147.14;100.00;58812.66;6244754;22;58768;-54
2023/01/04 07:38:45;;;;;;;;;0.00;0.00;;;;;-147.14;100.00;58812.66;6244543;22;61411;-54
2023/01/04 07:41:10;;;;;;;;;0.00;0.00;;;;;-147.14;100.00;58812.66;6244447;22;59218;-54
2023/01/04 07:43:35;;;;;;;;;0.00;0.00;;;;;-147.14;100.00;58812.66;6245481;22;57328;-54
2023/01/04 07:46:01;;;;;;;;;2.00;0.33;;;;;-147.14;100.00;58812.66;6245093;22;49365;-56
2023/01/04 07:48:28;;;;;;;;;0.67;0.67;;;;;-147.14;100.00;58812.66;6245810;22;54996;-55
2023/01/04 07:50:53;;;;;;;;;1.33;0.00;;;;;-147.14;100.00;58812.66;6245482;22;46314;-55
2023/01/04 07:53:19;;;;;;;;;0.00;0.00;;;;;-147.14;100.00;58812.66;6217603;22;45291;-56
2023/01/04 07:55:44;;;;;;;;;2.00;2.00;;;;;-147.14;100.00;58812.66;6242323;22;59336;-55
2023/01/04 07:58:09;;;;;;;;;2.00;1.00;;;;;-147.14;100.00;58812.66;6245145;22;45354;-53
2023/01/04 08:00:35;;;;;;;;;0.67;0.00;;;;;-147.14;100.00;58812.66;6244608;22;65310;-55
2023/01/04 08:03:00;;;;;;;;;0.00;0.00;;;;;-147.14;100.00;58812.66;6245527;22;45273;-55
2023/01/04 08:05:25;;;;;;;;;0.33;0.33;;;;;-147.14;100.00;58812.66;6245526;22;49177;-54
2023/01/04 08:07:51;;;;;;;;;1.00;1.00;;;;;-147.14;100.00;58812.66;6245166;22;45293;-55
2023/01/04 08:10:17;;;;;;;;;1.00;1.00;;;;;-147.14;100.00;58812.66;6244382;22;46212;-55
2023/01/04 08:12:42;;;;;;;;;1.00;1.00;;;;;-147.14;100.00;58812.66;6243448;22;45284;-53
2023/01/04 08:15:08;;;;;;;;;2.00;2.00;;;;;-147.14;100.00;58812.66;6241496;22;59209;-54
2023/01/04 08:17:33;;;;;;;;;2.00;1.00;;;;;-147.14;100.00;58812.66;6243622;22;45713;-54
2023/01/04 08:20:00;;;;;;;;;1.00;1.00;;;;;-147.14;100.00;58812.66;6242396;22;63395;-56
2023/01/04 08:22:25;;;;;;;;;1.00;1.00;;;;;-147.14;100.00;58812.66;6243479;22;45537;-53
2023/01/04 08:24:51;;;;;;;;;2.33;1.67;;;;;-147.14;100.00;58812.66;6243418;22;45321;-55
2023/01/04 08:27:16;;;;;;;;;1.00;1.00;;;;;-147.14;100.00;58812.66;6243775;22;45316;-55
2023/01/04 08:29:41;;;;;;;;;2.00;2.00;;;;;-147.14;100.00;58812.66;6242158;22;66399;-55
2023/01/04 08:32:07;;;;;;;;;2.00;1.00;;;;;-147.14;100.00;58812.66;6241918;22;45554;-55
2023/01/04 08:34:32;;;;;;;;;3.00;1.00;;;;;-147.14;100.00;58812.66;6244344;22;61861;-53
2023/01/04 08:36:58;;;;;;;;;1.00;1.00;;;;;-147.14;100.00;58812.66;6245668;22;45379;-55
2023/01/04 08:39:23;;;;;;;;;1.00;1.00;;;;;-147.14;100.00;58812.66;6245738;22;45995;-54
2023/01/04 08:41:52;;;;;;;;;1.00;1.00;;;;;-147.14;100.00;58812.66;6245524;22;64090;-56
2023/01/04 08:44:23;;;;;;;;;3.33;2.00;;;;;-147.14;100.00;58812.66;6246072;22;45242;-57
2023/01/04 08:46:50;;;;;;;;;0.00;0.00;;;;;-147.14;100.00;58812.66;6245660;22;45269;-54
2023/01/04 08:49:16;;;;;;;;;1.00;1.00;;;;;-147.14;100.00;58812.66;6246002;22;45329;-55
2023/01/04 08:51:41;;;;;;;;;1.00;1.00;;;;;-147.14;100.00;58812.66;6246279;22;45160;-56
2023/01/04 08:54:07;;;;;;;;;1.00;0.00;;;;;-147.14;100.00;58812.66;6245938;22;45233;-55
2023/01/04 08:56:33;;;;;;;;;1.00;1.00;;;;;-147.14;100.00;58812.66;6245647;22;45599;-54
2023/01/04 08:58:59;;;;;;;;;3.33;1.00;;;;;-147.14;100.00;58812.66;6245774;22;45285;-53
2023/01/04 09:01:24;;;;;;;;;0.33;0.00;;;;;-147.14;100.00;58812.66;6246023;22;45257;-54
2023/01/04 09:03:50;;;;;;;;;1.00;1.00;;;;;-147.14;100.00;58812.66;6245979;22;45285;-55
2023/01/04 09:06:15;;;;;;;;;0.67;0.33;;;;;-147.14;100.00;58812.66;6244920;22;61705;-55
2023/01/04 09:08:42;;;;;;;;;0.00;0.00;;;;;-147.14;100.00;58812.66;6245256;22;62233;-54
2023/01/04 09:11:18;;;;;;;;;1.67;0.00;;;;;-147.14;100.00;58812.66;6244513;22;45315;-56
2023/01/04 09:13:44;;;;;;;;;1.00;0.00;;;;;-147.14;100.00;58812.66;6246431;22;45242;-51
2023/01/04 09:16:17;;;;;;;;;1.00;1.00;;;;;-147.14;100.00;58812.66;6244820;22;45226;-51
2023/01/04 09:18:44;;;;;;;;;0.33;0.33;;;;;-147.14;100.00;58812.66;6245810;22;45317;-55
2023/01/04 09:21:14;;;;;;;;;1.00;1.00;;;;;-147.14;100.00;58812.66;6245800;22;45202;-54
2023/01/04 09:23:41;;;;;;;;;0.00;0.00;;;;;-147.14;100.00;58812.66;6245251;22;45254;-55
2023/01/04 09:26:12;;;;;;;;;0.67;0.67;;;;;-147.14;100.00;58812.66;6244710;22;45513;-54
2023/01/04 09:28:37;;;;;;;;;11.33;3.67;;;;;-147.14;100.00;58812.66;6245445;22;46074;-55
2023/01/04 09:31:08;;;;;;;;;2.00;0.67;;;;;-147.14;100.00;58812.66;6243984;22;45273;-56
2023/01/04 09:33:34;;;;;;;;;1.00;0.00;;;;;-147.14;100.00;58812.66;6246976;22;45300;-56
2023/01/04 09:36:02;;;;;;;;;2.00;0.00;;;;;-147.14;100.00;58812.66;6245695;22;45217;-52
2023/01/04 09:38:27;;;;;;;;;1.00;0.00;;;;;-147.14;100.00;58812.66;6245448;22;46136;-54
2023/01/04 09:41:06;;;;;;;;;1.00;1.00;;;;;-147.14;100.00;58812.66;6245479;22;45292;-55
2023/01/04 09:43:50;;;;;;;;;0.33;0.33;;;;;-147.14;100.00;58812.66;6246425;22;45382;-55
2023/01/04 09:46:22;;;;;;;;;1.00;1.00;;;;;-147.14;100.00;58812.66;6245903;22;45202;-55
2023/01/04 09:48:48;;;;;;;;;1.00;1.00;;;;;-147.14;100.00;58812.66;6245073;22;46151;-55
2023/01/04 09:51:16;;;;;;;;;0.00;0.00;;;;;-147.14;100.00;58812.66;6245629;22;45414;-56
2023/01/04 09:53:59;;;;;;;;;0.00;0.00;;;;;-147.14;100.00;58812.66;6245506;22;45311;-55
2023/01/04 09:56:31;;;;;;;;;1.00;0.00;;;;;-147.14;100.00;58812.66;6246455;22;45206;-54
2023/01/04 09:59:02;;;;;;;;;0.00;0.00;;;;;-147.14;100.00;58812.66;6215944;22;47055;-55
2023/01/04 10:01:40;;;;;;;;;0.67;0.00;;;;;-147.14;100.00;58812.66;6217927;22;45299;-56
2023/01/04 10:04:18;;;;;;;;;0.00;0.00;;;;;-147.14;100.00;58812.66;6218175;22;45316;-57
2023/01/04 10:06:44;;;;;;;;;1.00;0.00;;;;;-147.14;100.00;58812.66;6244972;22;45235;-55
2023/01/04 10:09:13;;;;;;;;;1.33;1.33;;;;;-147.14;100.00;58812.66;6244341;22;61923;-55
2023/01/04 10:11:41;;;;;;;;;2.00;1.00;;;;;-147.14;100.00;58812.66;6245200;22;45273;-56
2023/01/04 10:14:25;;;;;;;;;0.00;0.00;;;;;-147.14;100.00;58812.66;6245114;22;45289;-55
2023/01/04 10:17:19;;;;;;;;;1.00;1.00;;;;;-147.14;100.00;58812.66;6243039;22;45719;-55
2023/01/04 10:20:41;;;;;;;;;1.67;1.67;;;;;-147.14;100.00;58812.66;6228163;22;45288;-54
2023/01/04 10:23:24;;;;;;;;;2.67;0.00;;;;;-147.14;100.00;58812.66;6181763;23;45321;-54
2023/01/04 10:26:02;;;;;;;;;3.00;1.00;;;;;-147.14;100.00;58812.66;6182318;23;45244;-55
2023/01/04 10:28:58;;;;;;;;;1.67;1.00;;;;;-147.14;100.00;58812.66;6229123;22;45230;-55
2023/01/04 10:31:29;;;;;;;;;1.00;1.00;;;;;-147.14;100.00;58812.66;6244287;22;45336;-56
2023/01/04 10:34:09;;;;;;;;;0.00;0.00;;;;;-147.14;100.00;58812.66;6245385;22;45091;-55
2023/01/04 10:36:35;;;;;;;;;0.67;0.00;;;;;-147.14;100.00;58812.66;6245270;22;45320;-56
2023/01/04 10:39:04;;;;;;;;;2.00;0.00;;;;;-147.14;100.00;58812.66;6218013;22;45295;-56
2023/01/04 10:41:38;;;;;;;;;0.67;0.67;;;;;-147.14;100.00;58812.66;6217995;22;45586;-54
2023/01/04 10:44:09;;;;;;;;;1.00;1.00;;;;;-147.14;100.00;58812.66;6244846;22;45280;-56
2023/01/04 10:46:42;;;;;;;;;0.00;0.00;;;;;-147.14;100.00;58812.66;6218234;22;45332;-55
2023/01/04 10:49:16;;;;;;;;;0.00;0.00;;;;;-147.14;100.00;58812.66;6244587;22;45264;-57
2023/01/04 10:51:47;;;;;;;;;0.00;0.00;;;;;-147.14;100.00;58812.66;6245294;22;45701;-57
2023/01/04 10:54:25;;;;;;;;;1.00;1.00;;;;;-147.14;100.00;58812.66;6244902;22;45320;-57
2023/01/04 10:57:03;;;;;;;;;0.67;0.33;;;;;-147.14;100.00;58812.66;6245128;22;45229;-54
2023/01/04 11:00:07;;;;;;;;;1.00;1.00;;;;;-147.14;100.00;58812.66;6218414;22;45478;-55
2023/01/04 11:02:43;;;;;;;;;1.00;1.00;;;;;-147.14;100.00;58812.66;6122543;23;47015;-55
2023/01/04 11:05:23;;;;;;;;;1.33;1.33;;;;;-147.14;100.00;58812.66;6122567;23;45301;-56
2023/01/04 11:08:44;;;;;;;;;1.00;1.00;;;;;-147.14;100.00;58812.66;6200687;22;45255;-57
2023/01/04 11:11:13;;;;;;;;;2.00;2.00;;;;;-147.14;100.00;58812.66;6211736;22;45585;-55
2023/01/04 11:13:38;;;;;;;;;1.00;1.00;;;;;-147.14;100.00;58812.66;6219171;22;45569;-56
2023/01/04 11:16:04;;;;;;;;;1.67;1.67;;;;;-147.14;100.00;58812.66;6244030;22;67903;-56
2023/01/04 11:18:30;;;;;;;;;3.00;2.00;;;;;-147.14;100.00;58812.66;6245380;22;45290;-55
2023/01/04 11:20:56;;;;;;;;;2.00;2.00;;;;;-147.14;100.00;58812.66;6210748;22;45773;-55
2023/01/04 11:23:22;;;;;;;;;1.00;1.00;;;;;-147.14;100.00;58812.66;6243006;22;46557;-56
2023/01/04 11:25:51;;;;;;;;;1.00;1.00;;;;;-147.14;100.00;58812.66;6241235;22;61445;-56
2023/01/04 11:28:21;;;;;;;;;1.00;1.00;;;;;-147.14;100.00;58812.66;6212572;22;45395;-54
2023/01/04 11:30:56;;;;;;;;;1.00;1.00;;;;;-147.14;100.00;58812.66;6212655;22;45380;-54
2023/01/04 11:33:23;;;;;;;;;0.33;0.33;;;;;-147.14;100.00;58812.66;6214033;22;46685;-56
2023/01/04 11:35:57;;;;;;;;;10.67;10.67;;;;;-147.14;100.00;58812.66;6242588;22;45407;-56
2023/01/04 11:38:26;;;;;;;;;17.33;16.33;;;;;-147.14;100.00;58812.66;6216057;22;45388;-56
2023/01/04 11:41:01;;;;;;;;;1.00;1.00;;;;;-147.14;100.00;58812.66;6243621;22;45263;-55
2023/01/04 11:43:28;;;;;;;;;1.00;1.00;;;;;-147.14;100.00;58812.66;6243069;22;46139;-55
2023/01/04 11:45:56;;;;;;;;;2.00;2.00;;;;;-147.14;100.00;58812.66;6217837;22;45194;-55
2023/01/04 11:48:36;;;;;;;;;3.00;2.00;;;;;-147.14;100.00;58812.66;6239085;22;45668;-55
2023/01/04 11:51:03;;;;;;;;;2.00;1.00;;;;;-147.14;100.00;58812.66;6242558;22;45608;-54
2023/01/04 11:53:34;;;;;;;;;3.00;3.00;;;;;-147.14;100.00;58812.66;6192908;22;48553;-55
2023/01/04 11:56:23;;;;;;;;;1.67;1.00;;;;;-147.14;100.00;58812.66;6217799;22;45334;-55
2023/01/04 11:59:11;;;;;;;;;0.67;0.67;;;;;-147.14;100.00;58812.66;6245671;22;45541;-56
2023/01/04 12:01:43;;;;;;;;;3.67;3.67;;;;;-147.14;100.00;58812.66;6245932;22;45287;-56
2023/01/04 12:04:20;;;;;;;;;1.00;1.00;;;;;-147.14;100.00;58812.66;6244009;22;46180;-56
2023/01/04 12:06:58;;;;;;;;;4.00;2.00;;;;;-147.14;100.00;58812.66;6245052;22;45354;-56
2023/01/04 12:09:23;;;;;;;;;2.00;1.67;;;;;-147.14;100.00;58812.66;6219034;22;45344;-55
2023/01/04 12:11:51;;;;;;;;;1.67;1.67;;;;;-147.14;100.00;58812.66;6243956;22;54772;-55
2023/01/04 12:14:26;;;;;;;;;1.33;1.33;;;;;-147.14;100.00;58812.66;6241315;22;45918;-56
2023/01/04 12:17:20;;;;;;;;;1.00;1.00;;;;;-147.14;100.00;58812.66;6215264;22;45475;-55
2023/01/04 12:19:46;;;;;;;;;1.00;1.00;;;;;-147.14;100.00;58812.66;6217391;22;45380;-57
2023/01/04 12:22:20;;;;;;;;;1.00;1.00;;;;;-147.14;100.00;58812.66;6215788;22;45905;-58
2023/01/04 12:24:45;;;;;;;;;1.33;1.33;;;;;-147.14;100.00;58812.66;6241187;22;45449;-57
2023/01/04 12:27:12;;;;;;;;;0.00;0.00;;;;;-147.14;100.00;58812.66;6216726;22;45630;-57
2023/01/04 12:29:54;;;;;;;;;1.67;1.67;;;;;-147.14;100.00;58812.66;6245479;22;45315;-58
2023/01/04 12:32:25;;;;;;;;;1.00;1.00;;;;;-147.14;100.00;58812.66;6242510;22;45450;-58
2023/01/04 12:34:51;;;;;;;;;1.00;1.00;;;;;-147.14;100.00;58812.66;6246013;22;45517;-58
2023/01/04 12:37:44;;;;;;;;;1.00;1.00;;;;;-147.14;100.00;58812.66;6217494;22;45339;-58
2023/01/04 12:40:44;;;;;;;;;1.00;1.00;;;;;-147.14;100.00;58812.66;6243942;22;45296;-57
2023/01/04 12:43:15;;;;;;;;;1.00;1.00;;;;;-147.14;100.00;58812.66;6245413;22;45312;-57
2023/01/04 12:45:47;;;;;;;;;0.00;0.00;;;;;-147.14;100.00;58812.66;6245377;22;45935;-55
2023/01/04 12:51:22;;;;;;;;;2.67;0.33;;;;;-147.14;100.00;58812.66;6244276;22;45688;-57
2023/01/04 12:53:51;;;;;;;;;1.00;1.00;;;;;-147.14;100.00;58812.66;6216640;22;45504;-57
2023/01/04 12:56:17;;;;;;;;;1.00;1.00;;;;;-147.14;100.00;58812.66;6243851;22;45252;-57
2023/01/04 12:59:06;;;;;;;;;1.00;1.00;;;;;-147.14;100.00;58812.66;6243706;22;45328;-57
2023/01/04 13:01:32;;;;;;;;;1.67;0.00;;;;;-147.14;100.00;58812.66;6245461;22;45675;-58
2023/01/04 13:04:01;;;;;;;;;1.00;1.00;;;;;-147.14;100.00;58812.66;6244803;22;45323;-57
2023/01/04 13:06:27;;;;;;;;;0.00;0.00;;;;;-147.14;100.00;58812.66;6244610;22;45683;-57
2023/01/04 13:08:53;;;;;;;;;0.00;0.00;;;;;-147.14;100.00;58812.66;6245206;22;45504;-57
2023/01/04 13:11:37;;;;;;;;;1.00;1.00;;;;;-147.14;100.00;58812.66;6244779;22;45341;-57
2023/01/04 13:14:14;;;;;;;;;0.33;0.33;;;;;-147.14;100.00;58812.66;6242454;22;45196;-58
2023/01/04 13:17:19;;;;;;;;;1.00;1.00;;;;;-147.14;100.00;58812.66;6245055;22;45266;-58
2023/01/04 13:19:45;;;;;;;;;1.00;1.00;;;;;-147.14;100.00;58812.66;6181950;23;45425;-56
2023/01/04 13:22:27;;;;;;;;;0.00;0.00;;;;;-147.14;100.00;58812.66;6181099;23;45358;-57
2023/01/04 13:24:55;;;;;;;;;2.00;2.00;;;;;-147.14;100.00;58812.66;6203212;22;45412;-57
2023/01/04 13:27:21;;;;;;;;;1.67;0.00;;;;;-147.14;100.00;58812.66;6217904;22;46134;-56
2023/01/04 13:29:48;;;;;;;;;1.67;0.67;;;;;-147.14;100.00;58812.66;6243892;22;45419;-57
2023/01/04 13:32:22;;;;;;;;;1.67;1.00;;;;;-147.14;100.00;58812.66;6241069;22;45501;-57
2023/01/04 13:34:51;;;;;;;;;2.00;2.00;;;;;-147.14;100.00;58812.66;6216488;22;45377;-58
2023/01/04 13:37:20;;;;;;;;;3.00;1.00;;;;;-147.14;100.00;58812.66;6217126;22;47230;-58
2023/01/04 13:39:51;;;;;;;;;0.00;0.00;;;;;-147.14;100.00;58812.66;6244497;22;45203;-59
2023/01/04 13:42:26;;;;;;;;;0.00;0.00;;;;;-147.14;100.00;58812.66;6215850;22;45349;-58
2023/01/04 13:44:54;;;;;;;;;0.00;0.00;;;;;-147.14;100.00;58812.66;6241745;22;45704;-58
2023/01/04 13:47:19;;;;;;;;;0.00;0.00;;;;;-147.14;100.00;58812.66;6241138;22;46220;-57
2023/01/04 13:49:45;;;;;;;;;1.67;0.67;;;;;-147.14;100.00;58812.66;6242721;22;45471;-57
2023/01/04 13:52:23;;;;;;;;;1.00;1.00;;;;;-147.14;100.00;58812.66;6242066;22;45313;-58
2023/01/04 13:54:49;;;;;;;;;1.00;1.00;;;;;-147.14;100.00;58812.66;6243877;22;45328;-59
2023/01/04 13:57:19;;;;;;;;;2.33;0.67;;;;;-147.14;100.00;58812.66;6215730;22;47216;-58
2023/01/04 13:59:46;;;;;;;;;1.67;1.67;;;;;-147.14;100.00;58812.66;6241392;22;45532;-58
2023/01/04 14:02:17;;;;;;;;;1.00;1.00;;;;;-147.14;100.00;58812.66;6217378;22;45789;-58
2023/01/04 14:04:43;;;;;;;;;0.00;0.00;;;;;-147.14;100.00;58812.66;6215706;22;45526;-57
2023/01/04 14:07:08;;;;;;;;;0.67;0.67;;;;;-147.14;100.00;58812.66;6209214;22;45362;-58
2023/01/04 14:09:51;;;;;;;;;1.67;1.00;;;;;-147.14;100.00;58812.66;6235116;22;45344;-57
2023/01/04 14:12:19;;;;;;;;;1.33;0.00;;;;;-147.14;100.00;58812.66;6244278;22;45582;-58
2023/01/04 14:14:47;;;;;;;;;0.67;0.67;;;;;-147.14;100.00;58812.66;6245067;22;45226;-57
2023/01/04 14:17:16;;;;;;;;;0.33;0.33;;;;;-147.14;100.00;58812.66;6239935;22;46074;-59
2023/01/04 14:19:45;;;;;;;;;0.00;0.00;;;;;-147.14;100.00;58812.66;6242221;22;45371;-58
2023/01/04 14:22:32;;;;;;;;;2.33;0.67;;;;;-147.14;100.00;58812.66;6244417;22;45354;-58
2023/01/04 14:24:59;;;;;;;;;2.00;1.67;;;;;-147.14;100.00;58812.66;6239445;22;45688;-57
2023/01/04 14:27:36;;;;;;;;;0.67;0.67;;;;;-147.14;100.00;58812.66;6213441;22;46715;-58
2023/01/04 14:30:16;;;;;;;;;1.67;0.67;;;;;-147.14;100.00;58812.66;6241342;22;45404;-58
2023/01/04 14:32:52;;;;;;;;;0.00;0.00;;;;;-147.14;100.00;58812.66;6244315;22;45362;-58
2023/01/04 14:35:17;;;;;;;;;1.67;0.67;;;;;-147.14;100.00;58812.66;6244214;22;45649;-58
2023/01/04 14:37:43;;;;;;;;;0.50;0.50;;;;;-147.14;100.00;58812.66;6215574;22;45861;-58
2023/01/04 14:40:25;;;;;;;;;0.00;0.00;;;;;-147.14;100.00;58812.66;6242706;22;50307;-58
2023/01/04 14:42:51;;;;;;;;;1.25;0.25;;;;;-147.14;100.00;58812.66;6245853;22;45244;-57
2023/01/04 14:45:16;;;;;;;;;0.33;0.33;;;;;-147.14;100.00;58812.66;6219234;22;45344;-58
2023/01/04 14:47:41;;;;;;;;;0.75;0.75;;;;;-147.14;100.00;58812.66;6245873;22;45541;-58
2023/01/04 14:50:08;;;;;;;;;0.75;0.75;;;;;-147.14;100.00;58812.66;6245452;22;45353;-58
2023/01/04 14:52:33;;;;;;;;;0.33;0.33;;;;;-147.14;100.00;58812.66;6246532;22;45363;-57
2023/01/04 14:54:58;;;;;;;;;0.00;0.00;;;;;-147.14;100.00;58812.66;6245813;22;49118;-57
2023/01/04 14:57:24;;;;;;;;;0.67;0.67;;;;;-147.14;100.00;58812.66;6246039;22;45830;-58
2023/01/04 14:59:49;;;;;;;;;0.00;0.00;;;;;-147.14;100.00;58812.66;6245462;22;54114;-58
2023/01/04 15:02:15;;;;;;;;;0.33;0.33;;;;;-147.14;100.00;58812.66;6244315;22;56923;-58
2023/01/04 15:04:40;;;;;;;;;2.33;1.00;;;;;-147.14;100.00;58812.66;6245017;22;45426;-57
2023/01/04 15:07:06;;;;;;;;;0.00;0.00;;;;;-147.14;100.00;58812.66;6245272;22;46173;-56
2023/01/04 15:09:31;;;;;;;;;0.33;0.33;;;;;-147.14;100.00;58812.66;6246680;22;45336;-53
2023/01/04 15:11:57;;;;;;;;;0.00;0.00;;;;;-147.14;100.00;58812.66;6246312;22;45210;-55
2023/01/04 15:14:22;;;;;;;;;0.67;0.00;;;;;-147.14;100.00;58812.66;6220213;22;45420;-54
2023/01/04 15:16:48;;;;;;;;;0.67;0.67;;;;;-147.14;100.00;58812.66;6246491;22;46175;-54
2023/01/04 15:19:13;;;;;;;;;0.33;0.33;;;;;-147.14;100.00;58812.66;6246831;22;45222;-53
2023/01/04 15:21:39;;;;;;;;;0.00;0.00;;;;;-147.14;100.00;58812.66;6247448;22;45281;-54
2023/01/04 15:24:05;;;;;;;;;0.25;0.00;;;;;-147.14;100.00;58812.66;6246343;22;45226;-51
2023/01/04 15:26:30;;;;;;;;;0.67;0.67;;;;;-147.14;100.00;58812.66;6246525;22;46165;-52
2023/01/04 15:28:56;;;;;;;;;1.33;0.67;;;;;-147.14;100.00;58812.66;6246034;22;45180;-50
2023/01/04 15:31:21;;;;;;;;;0.67;0.67;;;;;-147.14;100.00;58812.66;6247034;22;45178;-53
2023/01/04 15:33:46;;;;;;;;;0.67;0.67;;;;;-147.14;100.00;58812.66;6247088;22;45254;-54
2023/01/04 15:36:14;;;;;;;;;0.00;0.00;;;;;-147.14;100.00;58812.66;6246268;22;47799;-53
2023/01/04 15:38:39;;;;;;;;;1.67;0.33;;;;;-147.14;100.00;58812.66;6246355;22;45206;-54
2023/01/04 15:42:57;;;;;;;;;0.00;0.00;;;;;-147.14;100.00;58812.66;6247009;22;45308;-52
2023/01/04 15:43:58;;;;;;;;;0.67;0.67;;;;;-147.14;100.00;58812.66;6244812;22;45479;-54
2023/01/04 15:46:24;;;;;;;;;0.00;0.00;;;;;-147.14;100.00;58812.66;6245858;22;45356;-54
2023/01/04 15:48:49;;;;;;;;;0.67;0.67;;;;;-147.14;100.00;58812.66;6246401;22;63778;-53
2023/01/04 15:51:14;;;;;;;;;0.33;0.33;;;;;-147.14;100.00;58812.66;6245961;22;61711;-54
2023/01/04 15:53:40;;;;;;;;;0.67;0.67;;;;;-147.14;100.00;58812.66;6246440;22;55191;-53
2023/01/04 15:56:08;;;;;;;;;0.67;0.67;;;;;-147.14;100.00;58812.66;6245109;22;68982;-53
2023/01/04 15:58:33;;;;;;;;;0.33;0.00;;;;;-147.14;100.00;58812.66;6247063;22;45336;-52
2023/01/04 16:00:59;;;;;;;;;1.00;0.67;;;;;-147.14;100.00;58812.66;6246528;22;45336;-54
2023/01/04 16:03:24;;;;;;;;;1.33;0.67;;;;;-147.14;100.00;58812.66;6246067;22;45190;-55
2023/01/04 16:05:49;;;;;;;;;0.33;0.33;;;;;-147.14;100.00;58812.66;6246387;22;61310;-55
2023/01/04 16:08:15;;;;;;;;;0.67;0.67;;;;;-147.14;100.00;58812.66;6245737;22;45265;-52
2023/01/04 16:10:40;;;;;;;;;1.33;1.33;;;;;-147.14;100.00;58812.66;6246713;22;46655;-50
2023/01/04 16:13:06;;;;;;;;;1.67;1.67;;;;;-147.14;100.00;58812.66;6245765;22;45325;-54
2023/01/04 16:15:31;;;;;;;;;0.00;0.00;;;;;-147.14;100.00;58812.66;6246339;22;46982;-51
2023/01/04 16:17:57;;;;;;;;;1.33;0.00;;;;;-147.14;100.00;58812.66;6218734;22;45430;-52
2023/01/04 16:20:22;;;;;;;;;0.67;0.67;;;;;-147.14;100.00;58812.66;6246236;22;58564;-51
2023/01/04 16:22:48;;;;;;;;;0.67;0.67;;;;;-147.14;100.00;58812.66;6246101;22;45361;-51
2023/01/04 16:25:13;;;;;;;;;0.00;0.00;;;;;-147.14;100.00;58812.66;6245564;22;46205;-53
2023/01/04 16:27:39;;;;;;;;;1.33;0.67;;;;;-147.14;100.00;58812.66;6245833;22;45292;-52
2023/01/04 16:30:10;;;;;;;;;0.00;0.00;;;;;-147.14;100.00;58812.66;6245831;22;45359;-54
2023/01/04 16:32:40;;;;;;;;;1.00;0.67;;;;;-147.14;100.00;58812.66;6219287;22;45527;-53
2023/01/04 16:35:05;;;;;;;;;0.00;0.00;;;;;-147.14;100.00;58812.66;6245584;22;45981;-53
2023/01/04 16:37:30;;;;;;;;;0.00;0.00;;;;;-147.14;100.00;58812.66;6246144;22;45275;-55
2023/01/04 16:39:56;;;;;;;;;0.00;0.00;;;;;-147.14;100.00;58812.66;6246095;22;45640;-52
2023/01/04 16:42:22;;;;;;;;;0.67;0.67;;;;;-147.14;100.00;58812.66;6246422;22;45205;-54
2023/01/04 16:44:47;;;;;;;;;0.33;0.33;;;;;-147.14;100.00;58812.66;6245829;22;65323;-53
2023/01/04 16:47:12;;;;;;;;;0.67;0.67;;;;;-147.14;100.00;58812.66;6245917;22;51767;-54
2023/01/04 16:49:38;;;;;;;;;0.00;0.00;;;;;-147.14;100.00;58812.66;6246022;22;59441;-53
2023/01/04 16:52:05;;;;;;;;;0.00;0.00;;;;;-147.14;100.00;58812.66;6245013;22;60856;-52
2023/01/04 16:54:31;;;;;;;;;1.00;1.00;;;;;-147.14;100.00;58812.66;6245827;22;46153;-52
2023/01/04 16:56:57;;;;;;;;;1.67;1.67;;;;;-147.14;100.00;58812.66;6218154;22;45546;-54
2023/01/04 16:59:23;;;;;;;;;1.33;1.33;;;;;-147.14;100.00;58812.66;6246265;22;45395;-54